sensor_id;sensor_type;location;lat;lon;timestamp;P1;durP1;ratioP1;P2;durP2;ratioP2
7487;SDS011;3785;52.260;4.728;2022-10-16T00:01:55;2.28;;;0.70;;
7487;SDS011;3785;52.260;4.728;2022-10-16T00:05:16;1.30;;;0.52;;
7487;SDS011;3785;52.260;4.728;2022-10-16T00:08:37;0.95;;;0.43;;
7487;SDS011;3785;52.260;4.728;2022-10-16T00:11:58;2.58;;;0.77;;
7487;SDS011;3785;52.260;4.728;2022-10-16T00:15:18;1.38;;;0.50;;
7487;SDS011;3785;52.260;4.728;2022-10-16T00:18:39;2.90;;;0.70;;
7487;SDS011;3785;52.260;4.728;2022-10-16T00:22:00;2.28;;;0.70;;
7487;SDS011;3785;52.260;4.728;2022-10-16T00:25:20;1.90;;;0.57;;
7487;SDS011;3785;52.260;4.728;2022-10-16T00:28:41;1.38;;;0.52;;
7487;SDS011;3785;52.260;4.728;2022-10-16T00:32:02;2.05;;;0.70;;
7487;SDS011;3785;52.260;4.728;2022-10-16T00:35:23;1.45;;;0.60;;
7487;SDS011;3785;52.260;4.728;2022-10-16T00:38:43;1.05;;;0.60;;
7487;SDS011;3785;52.260;4.728;2022-10-16T00:42:04;0.98;;;0.60;;
7487;SDS011;3785;52.260;4.728;2022-10-16T00:45:25;0.95;;;0.60;;
7487;SDS011;3785;52.260;4.728;2022-10-16T00:48:48;2.15;;;0.68;;
7487;SDS011;3785;52.260;4.728;2022-10-16T00:52:20;2.03;;;0.77;;
7487;SDS011;3785;52.260;4.728;2022-10-16T00:55:41;1.92;;;0.70;;
7487;SDS011;3785;52.260;4.728;2022-10-16T00:59:02;1.60;;;0.77;;
7487;SDS011;3785;52.260;4.728;2022-10-16T01:02:26;2.28;;;0.50;;
7487;SDS011;3785;52.260;4.728;2022-10-16T01:05:49;1.25;;;0.47;;
7487;SDS011;3785;52.260;4.728;2022-10-16T01:12:39;0.73;;;0.55;;
7487;SDS011;3785;52.260;4.728;2022-10-16T01:16:31;1.85;;;0.60;;
7487;SDS011;3785;52.260;4.728;2022-10-16T01:27:28;0.93;;;0.50;;
7487;SDS011;3785;52.260;4.728;2022-10-16T01:30:52;1.05;;;0.50;;
7487;SDS011;3785;52.260;4.728;2022-10-16T01:35:15;1.95;;;0.60;;
7487;SDS011;3785;52.260;4.728;2022-10-16T01:38:12;2.95;;;0.60;;
7487;SDS011;3785;52.260;4.728;2022-10-16T01:41:48;1.10;;;0.50;;
7487;SDS011;3785;52.260;4.728;2022-10-16T01:45:15;1.08;;;0.50;;
7487;SDS011;3785;52.260;4.728;2022-10-16T01:48:38;0.82;;;0.43;;
7487;SDS011;3785;52.260;4.728;2022-10-16T01:51:59;0.80;;;0.40;;
7487;SDS011;3785;52.260;4.728;2022-10-16T01:55:28;0.50;;;0.30;;
7487;SDS011;3785;52.260;4.728;2022-10-16T01:58:52;1.17;;;0.60;;
7487;SDS011;3785;52.260;4.728;2022-10-16T02:02:14;0.82;;;0.55;;
7487;SDS011;3785;52.260;4.728;2022-10-16T02:05:39;1.90;;;0.30;;
7487;SDS011;3785;52.260;4.728;2022-10-16T02:09:01;1.48;;;0.52;;
7487;SDS011;3785;52.260;4.728;2022-10-16T02:12:26;0.93;;;0.45;;
7487;SDS011;3785;52.260;4.728;2022-10-16T02:15:49;2.05;;;0.57;;
7487;SDS011;3785;52.260;4.728;2022-10-16T02:19:10;1.15;;;0.57;;
7487;SDS011;3785;52.260;4.728;2022-10-16T02:22:36;1.52;;;0.47;;
7487;SDS011;3785;52.260;4.728;2022-10-16T02:25:59;1.63;;;0.70;;
7487;SDS011;3785;52.260;4.728;2022-10-16T02:29:23;2.55;;;0.60;;
7487;SDS011;3785;52.260;4.728;2022-10-16T02:32:47;0.93;;;0.52;;
7487;SDS011;3785;52.260;4.728;2022-10-16T02:36:08;1.80;;;0.30;;
7487;SDS011;3785;52.260;4.728;2022-10-16T02:39:29;0.95;;;0.50;;
7487;SDS011;3785;52.260;4.728;2022-10-16T02:42:52;1.60;;;0.73;;
7487;SDS011;3785;52.260;4.728;2022-10-16T02:46:13;2.50;;;0.70;;
7487;SDS011;3785;52.260;4.728;2022-10-16T02:49:34;1.77;;;0.70;;
7487;SDS011;3785;52.260;4.728;2022-10-16T02:52:54;1.20;;;0.68;;
7487;SDS011;3785;52.260;4.728;2022-10-16T02:56:15;1.05;;;0.68;;
7487;SDS011;3785;52.260;4.728;2022-10-16T02:59:35;1.85;;;0.80;;
7487;SDS011;3785;52.260;4.728;2022-10-16T03:02:56;0.90;;;0.60;;
7487;SDS011;3785;52.260;4.728;2022-10-16T03:06:16;1.45;;;0.82;;
7487;SDS011;3785;52.260;4.728;2022-10-16T03:09:37;1.60;;;0.85;;
7487;SDS011;3785;52.260;4.728;2022-10-16T03:12:57;1.08;;;0.70;;
7487;SDS011;3785;52.260;4.728;2022-10-16T03:16:18;1.33;;;0.82;;
7487;SDS011;3785;52.260;4.728;2022-10-16T03:19:39;1.45;;;0.90;;
7487;SDS011;3785;52.260;4.728;2022-10-16T03:22:59;2.38;;;0.95;;
7487;SDS011;3785;52.260;4.728;2022-10-16T03:26:20;2.10;;;0.80;;
7487;SDS011;3785;52.260;4.728;2022-10-16T03:29:40;2.13;;;0.80;;
7487;SDS011;3785;52.260;4.728;2022-10-16T03:33:01;2.83;;;0.80;;
7487;SDS011;3785;52.260;4.728;2022-10-16T03:36:21;2.08;;;0.90;;
7487;SDS011;3785;52.260;4.728;2022-10-16T03:39:42;1.40;;;0.80;;
7487;SDS011;3785;52.260;4.728;2022-10-16T03:43:03;2.25;;;0.85;;
7487;SDS011;3785;52.260;4.728;2022-10-16T03:46:23;1.70;;;0.88;;
7487;SDS011;3785;52.260;4.728;2022-10-16T03:49:44;2.38;;;0.88;;
7487;SDS011;3785;52.260;4.728;2022-10-16T03:53:04;3.88;;;0.70;;
7487;SDS011;3785;52.260;4.728;2022-10-16T03:56:25;2.15;;;0.75;;
7487;SDS011;3785;52.260;4.728;2022-10-16T03:59:46;1.25;;;0.73;;
7487;SDS011;3785;52.260;4.728;2022-10-16T04:03:07;1.85;;;0.80;;
7487;SDS011;3785;52.260;4.728;2022-10-16T04:10:19;1.20;;;0.65;;
7487;SDS011;3785;52.260;4.728;2022-10-16T04:13:40;1.52;;;0.68;;
7487;SDS011;3785;52.260;4.728;2022-10-16T04:17:01;2.53;;;0.80;;
7487;SDS011;3785;52.260;4.728;2022-10-16T04:20:22;1.98;;;0.90;;
7487;SDS011;3785;52.260;4.728;2022-10-16T04:23:42;2.55;;;0.82;;
7487;SDS011;3785;52.260;4.728;2022-10-16T04:27:03;1.48;;;0.60;;
7487;SDS011;3785;52.260;4.728;2022-10-16T04:30:24;0.80;;;0.50;;
7487;SDS011;3785;52.260;4.728;2022-10-16T04:33:44;1.73;;;0.50;;
7487;SDS011;3785;52.260;4.728;2022-10-16T04:37:05;1.35;;;0.70;;
7487;SDS011;3785;52.260;4.728;2022-10-16T04:40:25;1.13;;;0.70;;
7487;SDS011;3785;52.260;4.728;2022-10-16T04:43:46;0.82;;;0.50;;
7487;SDS011;3785;52.260;4.728;2022-10-16T04:47:07;1.70;;;0.75;;
7487;SDS011;3785;52.260;4.728;2022-10-16T04:50:27;1.20;;;0.50;;
7487;SDS011;3785;52.260;4.728;2022-10-16T04:53:48;2.08;;;0.75;;
7487;SDS011;3785;52.260;4.728;2022-10-16T04:57:08;1.55;;;0.70;;
7487;SDS011;3785;52.260;4.728;2022-10-16T05:00:29;1.13;;;0.77;;
7487;SDS011;3785;52.260;4.728;2022-10-16T05:03:50;1.30;;;0.60;;
7487;SDS011;3785;52.260;4.728;2022-10-16T05:07:11;2.38;;;0.63;;
7487;SDS011;3785;52.260;4.728;2022-10-16T05:10:31;1.33;;;0.73;;
7487;SDS011;3785;52.260;4.728;2022-10-16T05:13:52;2.35;;;0.90;;
7487;SDS011;3785;52.260;4.728;2022-10-16T05:17:12;2.40;;;0.88;;
7487;SDS011;3785;52.260;4.728;2022-10-16T05:20:33;3.47;;;0.77;;
7487;SDS011;3785;52.260;4.728;2022-10-16T05:23:53;0.93;;;0.60;;
7487;SDS011;3785;52.260;4.728;2022-10-16T05:27:15;1.20;;;0.90;;
7487;SDS011;3785;52.260;4.728;2022-10-16T05:30:39;2.20;;;0.80;;
7487;SDS011;3785;52.260;4.728;2022-10-16T05:33:59;0.77;;;0.50;;
7487;SDS011;3785;52.260;4.728;2022-10-16T05:37:20;1.55;;;0.65;;
7487;SDS011;3785;52.260;4.728;2022-10-16T05:40:40;1.63;;;0.82;;
7487;SDS011;3785;52.260;4.728;2022-10-16T05:44:03;0.95;;;0.57;;
7487;SDS011;3785;52.260;4.728;2022-10-16T05:47:25;1.13;;;0.80;;
7487;SDS011;3785;52.260;4.728;2022-10-16T05:50:46;3.25;;;0.93;;
7487;SDS011;3785;52.260;4.728;2022-10-16T05:54:07;1.88;;;0.70;;
7487;SDS011;3785;52.260;4.728;2022-10-16T05:57:27;1.20;;;0.70;;
7487;SDS011;3785;52.260;4.728;2022-10-16T06:00:58;2.00;;;1.20;;
7487;SDS011;3785;52.260;4.728;2022-10-16T06:04:20;0.93;;;0.60;;
7487;SDS011;3785;52.260;4.728;2022-10-16T06:07:41;2.63;;;0.80;;
7487;SDS011;3785;52.260;4.728;2022-10-16T06:11:02;2.80;;;0.70;;
7487;SDS011;3785;52.260;4.728;2022-10-16T06:14:24;3.22;;;0.80;;
7487;SDS011;3785;52.260;4.728;2022-10-16T06:17:44;1.98;;;1.10;;
7487;SDS011;3785;52.260;4.728;2022-10-16T06:21:08;1.77;;;0.85;;
7487;SDS011;3785;52.260;4.728;2022-10-16T06:24:34;1.60;;;1.02;;
7487;SDS011;3785;52.260;4.728;2022-10-16T06:27:55;3.17;;;1.10;;
7487;SDS011;3785;52.260;4.728;2022-10-16T06:31:16;1.42;;;0.80;;
7487;SDS011;3785;52.260;4.728;2022-10-16T06:34:37;1.80;;;0.90;;
7487;SDS011;3785;52.260;4.728;2022-10-16T06:37:59;3.47;;;1.08;;
7487;SDS011;3785;52.260;4.728;2022-10-16T06:41:20;1.85;;;0.70;;
7487;SDS011;3785;52.260;4.728;2022-10-16T06:44:42;1.75;;;0.95;;
7487;SDS011;3785;52.260;4.728;2022-10-16T06:48:02;3.42;;;0.98;;
7487;SDS011;3785;52.260;4.728;2022-10-16T06:51:23;1.52;;;0.75;;
7487;SDS011;3785;52.260;4.728;2022-10-16T06:54:44;1.67;;;1.00;;
7487;SDS011;3785;52.260;4.728;2022-10-16T06:58:05;0.95;;;0.73;;
7487;SDS011;3785;52.260;4.728;2022-10-16T07:01:25;1.98;;;0.73;;
7487;SDS011;3785;52.260;4.728;2022-10-16T07:04:46;1.80;;;0.90;;
7487;SDS011;3785;52.260;4.728;2022-10-16T07:08:07;1.30;;;0.73;;
7487;SDS011;3785;52.260;4.728;2022-10-16T07:11:28;2.83;;;0.90;;
7487;SDS011;3785;52.260;4.728;2022-10-16T07:14:48;1.45;;;0.60;;
7487;SDS011;3785;52.260;4.728;2022-10-16T07:18:12;2.13;;;0.65;;
7487;SDS011;3785;52.260;4.728;2022-10-16T07:21:33;1.00;;;0.60;;
7487;SDS011;3785;52.260;4.728;2022-10-16T07:24:57;1.20;;;0.80;;
7487;SDS011;3785;52.260;4.728;2022-10-16T07:28:17;2.50;;;0.70;;
7487;SDS011;3785;52.260;4.728;2022-10-16T07:31:38;2.03;;;0.57;;
7487;SDS011;3785;52.260;4.728;2022-10-16T07:34:59;2.65;;;0.68;;
7487;SDS011;3785;52.260;4.728;2022-10-16T07:38:20;3.78;;;0.90;;
7487;SDS011;3785;52.260;4.728;2022-10-16T07:41:41;5.75;;;1.00;;
7487;SDS011;3785;52.260;4.728;2022-10-16T07:45:02;2.17;;;0.93;;
7487;SDS011;3785;52.260;4.728;2022-10-16T07:48:23;2.30;;;0.80;;
7487;SDS011;3785;52.260;4.728;2022-10-16T07:51:44;2.20;;;0.85;;
7487;SDS011;3785;52.260;4.728;2022-10-16T07:55:04;1.50;;;0.77;;
7487;SDS011;3785;52.260;4.728;2022-10-16T07:58:26;3.25;;;0.98;;
7487;SDS011;3785;52.260;4.728;2022-10-16T08:01:48;1.60;;;0.85;;
7487;SDS011;3785;52.260;4.728;2022-10-16T08:05:09;1.52;;;0.85;;
7487;SDS011;3785;52.260;4.728;2022-10-16T08:08:30;2.58;;;1.00;;
7487;SDS011;3785;52.260;4.728;2022-10-16T08:11:50;3.78;;;1.20;;
7487;SDS011;3785;52.260;4.728;2022-10-16T08:15:12;2.90;;;1.08;;
7487;SDS011;3785;52.260;4.728;2022-10-16T08:18:39;1.20;;;0.90;;
7487;SDS011;3785;52.260;4.728;2022-10-16T08:22:00;1.08;;;0.73;;
7487;SDS011;3785;52.260;4.728;2022-10-16T08:25:22;2.63;;;0.90;;
7487;SDS011;3785;52.260;4.728;2022-10-16T08:28:43;3.63;;;0.82;;
7487;SDS011;3785;52.260;4.728;2022-10-16T08:32:03;1.60;;;0.90;;
7487;SDS011;3785;52.260;4.728;2022-10-16T08:35:24;2.67;;;0.77;;
7487;SDS011;3785;52.260;4.728;2022-10-16T08:38:47;2.55;;;1.10;;
7487;SDS011;3785;52.260;4.728;2022-10-16T08:49:30;3.55;;;1.00;;
7487;SDS011;3785;52.260;4.728;2022-10-16T08:52:51;2.78;;;0.82;;
7487;SDS011;3785;52.260;4.728;2022-10-16T08:56:12;2.90;;;0.90;;
7487;SDS011;3785;52.260;4.728;2022-10-16T08:59:32;6.78;;;1.20;;
7487;SDS011;3785;52.260;4.728;2022-10-16T09:03:02;2.95;;;0.90;;
7487;SDS011;3785;52.260;4.728;2022-10-16T09:10:11;2.85;;;0.90;;
7487;SDS011;3785;52.260;4.728;2022-10-16T09:13:55;3.00;;;1.25;;
7487;SDS011;3785;52.260;4.728;2022-10-16T09:24:46;1.83;;;0.68;;
7487;SDS011;3785;52.260;4.728;2022-10-16T09:28:07;3.85;;;0.90;;
7487;SDS011;3785;52.260;4.728;2022-10-16T09:31:29;3.15;;;0.70;;
7487;SDS011;3785;52.260;4.728;2022-10-16T09:34:50;3.90;;;1.08;;
7487;SDS011;3785;52.260;4.728;2022-10-16T09:38:20;1.50;;;0.80;;
7487;SDS011;3785;52.260;4.728;2022-10-16T09:41:48;2.30;;;0.60;;
7487;SDS011;3785;52.260;4.728;2022-10-16T09:45:19;5.40;;;0.98;;
7487;SDS011;3785;52.260;4.728;2022-10-16T09:48:46;4.05;;;0.73;;
7487;SDS011;3785;52.260;4.728;2022-10-16T09:52:13;3.33;;;0.90;;
7487;SDS011;3785;52.260;4.728;2022-10-16T09:55:34;2.80;;;0.98;;
7487;SDS011;3785;52.260;4.728;2022-10-16T09:59:17;4.60;;;1.30;;
7487;SDS011;3785;52.260;4.728;2022-10-16T10:02:37;2.53;;;1.02;;
7487;SDS011;3785;52.260;4.728;2022-10-16T10:05:58;4.65;;;1.00;;
7487;SDS011;3785;52.260;4.728;2022-10-16T10:09:20;5.97;;;0.90;;
7487;SDS011;3785;52.260;4.728;2022-10-16T10:12:49;3.80;;;1.25;;
7487;SDS011;3785;52.260;4.728;2022-10-16T10:16:10;6.47;;;1.10;;
7487;SDS011;3785;52.260;4.728;2022-10-16T10:20:14;4.97;;;0.93;;
7487;SDS011;3785;52.260;4.728;2022-10-16T10:23:21;3.03;;;0.82;;
7487;SDS011;3785;52.260;4.728;2022-10-16T10:30:27;4.57;;;0.80;;
7487;SDS011;3785;52.260;4.728;2022-10-16T10:45:18;2.75;;;0.43;;
7487;SDS011;3785;52.260;4.728;2022-10-16T10:48:54;3.17;;;0.95;;
7487;SDS011;3785;52.260;4.728;2022-10-16T11:03:06;3.65;;;0.73;;
7487;SDS011;3785;52.260;4.728;2022-10-16T11:06:45;6.07;;;0.80;;
7487;SDS011;3785;52.260;4.728;2022-10-16T11:14:16;2.60;;;0.70;;
7487;SDS011;3785;52.260;4.728;2022-10-16T11:17:47;2.28;;;0.93;;
7487;SDS011;3785;52.260;4.728;2022-10-16T11:21:13;4.03;;;0.60;;
7487;SDS011;3785;52.260;4.728;2022-10-16T11:24:41;2.80;;;1.20;;
7487;SDS011;3785;52.260;4.728;2022-10-16T11:31:40;3.13;;;0.50;;
7487;SDS011;3785;52.260;4.728;2022-10-16T11:35:15;2.75;;;0.88;;
7487;SDS011;3785;52.260;4.728;2022-10-16T11:39:00;4.07;;;0.70;;
7487;SDS011;3785;52.260;4.728;2022-10-16T11:42:41;4.65;;;0.90;;
7487;SDS011;3785;52.260;4.728;2022-10-16T11:46:15;2.58;;;0.60;;
7487;SDS011;3785;52.260;4.728;2022-10-16T11:49:37;5.57;;;1.02;;
7487;SDS011;3785;52.260;4.728;2022-10-16T11:56:22;1.83;;;0.50;;
7487;SDS011;3785;52.260;4.728;2022-10-16T12:10:26;1.80;;;0.63;;
7487;SDS011;3785;52.260;4.728;2022-10-16T12:13:49;3.15;;;0.60;;
7487;SDS011;3785;52.260;4.728;2022-10-16T12:17:23;1.85;;;0.45;;
7487;SDS011;3785;52.260;4.728;2022-10-16T12:20:55;5.72;;;0.63;;
7487;SDS011;3785;52.260;4.728;2022-10-16T12:28:05;4.70;;;0.90;;
7487;SDS011;3785;52.260;4.728;2022-10-16T12:31:38;2.08;;;0.65;;
7487;SDS011;3785;52.260;4.728;2022-10-16T12:35:04;4.95;;;0.93;;
7487;SDS011;3785;52.260;4.728;2022-10-16T12:38:31;1.70;;;0.50;;
7487;SDS011;3785;52.260;4.728;2022-10-16T12:42:19;4.05;;;0.55;;
7487;SDS011;3785;52.260;4.728;2022-10-16T12:45:40;1.30;;;0.52;;
7487;SDS011;3785;52.260;4.728;2022-10-16T13:03:02;4.82;;;0.75;;
7487;SDS011;3785;52.260;4.728;2022-10-16T13:14:57;1.98;;;0.40;;
7487;SDS011;3785;52.260;4.728;2022-10-16T13:29:19;5.20;;;1.00;;
7487;SDS011;3785;52.260;4.728;2022-10-16T13:32:43;3.25;;;0.60;;
7487;SDS011;3785;52.260;4.728;2022-10-16T13:36:05;1.88;;;0.50;;
7487;SDS011;3785;52.260;4.728;2022-10-16T13:39:27;3.75;;;0.70;;
7487;SDS011;3785;52.260;4.728;2022-10-16T13:42:49;3.30;;;0.77;;
7487;SDS011;3785;52.260;4.728;2022-10-16T13:49:41;3.47;;;0.60;;
7487;SDS011;3785;52.260;4.728;2022-10-16T13:53:20;3.60;;;0.65;;
7487;SDS011;3785;52.260;4.728;2022-10-16T13:56:40;3.42;;;0.73;;
7487;SDS011;3785;52.260;4.728;2022-10-16T14:00:01;2.58;;;0.60;;
7487;SDS011;3785;52.260;4.728;2022-10-16T14:03:23;3.22;;;0.75;;
7487;SDS011;3785;52.260;4.728;2022-10-16T14:06:45;5.97;;;0.52;;
7487;SDS011;3785;52.260;4.728;2022-10-16T14:10:07;1.92;;;0.60;;
7487;SDS011;3785;52.260;4.728;2022-10-16T14:13:44;2.10;;;0.70;;
7487;SDS011;3785;52.260;4.728;2022-10-16T14:17:05;2.45;;;0.75;;
7487;SDS011;3785;52.260;4.728;2022-10-16T14:20:27;3.25;;;0.70;;
7487;SDS011;3785;52.260;4.728;2022-10-16T14:23:49;2.78;;;0.57;;
7487;SDS011;3785;52.260;4.728;2022-10-16T14:27:24;1.92;;;0.50;;
7487;SDS011;3785;52.260;4.728;2022-10-16T14:30:54;3.00;;;0.65;;
7487;SDS011;3785;52.260;4.728;2022-10-16T14:34:26;3.00;;;0.60;;
7487;SDS011;3785;52.260;4.728;2022-10-16T14:37:54;3.92;;;0.73;;
7487;SDS011;3785;52.260;4.728;2022-10-16T14:41:16;5.00;;;0.80;;
7487;SDS011;3785;52.260;4.728;2022-10-16T14:44:43;3.17;;;0.93;;
7487;SDS011;3785;52.260;4.728;2022-10-16T14:48:05;2.97;;;0.68;;
7487;SDS011;3785;52.260;4.728;2022-10-16T14:51:32;3.70;;;0.80;;
7487;SDS011;3785;52.260;4.728;2022-10-16T14:54:53;2.08;;;0.60;;
7487;SDS011;3785;52.260;4.728;2022-10-16T14:58:15;2.70;;;0.82;;
7487;SDS011;3785;52.260;4.728;2022-10-16T15:01:38;4.18;;;0.90;;
7487;SDS011;3785;52.260;4.728;2022-10-16T15:05:01;3.28;;;0.82;;
7487;SDS011;3785;52.260;4.728;2022-10-16T15:08:31;4.95;;;0.80;;
7487;SDS011;3785;52.260;4.728;2022-10-16T15:11:51;6.13;;;1.20;;
7487;SDS011;3785;52.260;4.728;2022-10-16T15:15:23;1.65;;;0.63;;
7487;SDS011;3785;52.260;4.728;2022-10-16T15:18:55;6.93;;;0.90;;
7487;SDS011;3785;52.260;4.728;2022-10-16T15:22:16;4.57;;;0.70;;
7487;SDS011;3785;52.260;4.728;2022-10-16T15:28:59;3.65;;;0.57;;
7487;SDS011;3785;52.260;4.728;2022-10-16T15:32:20;2.72;;;0.82;;
7487;SDS011;3785;52.260;4.728;2022-10-16T15:35:40;2.10;;;0.60;;
7487;SDS011;3785;52.260;4.728;2022-10-16T15:39:02;4.70;;;1.70;;
7487;SDS011;3785;52.260;4.728;2022-10-16T15:42:23;2.22;;;0.60;;
7487;SDS011;3785;52.260;4.728;2022-10-16T15:45:44;5.07;;;1.00;;
7487;SDS011;3785;52.260;4.728;2022-10-16T15:49:07;3.33;;;0.82;;
7487;SDS011;3785;52.260;4.728;2022-10-16T15:52:29;3.65;;;0.80;;
7487;SDS011;3785;52.260;4.728;2022-10-16T15:55:51;2.47;;;0.95;;
7487;SDS011;3785;52.260;4.728;2022-10-16T15:59:12;6.30;;;1.15;;
7487;SDS011;3785;52.260;4.728;2022-10-16T16:02:32;2.97;;;0.88;;
7487;SDS011;3785;52.260;4.728;2022-10-16T16:05:53;2.80;;;0.75;;
7487;SDS011;3785;52.260;4.728;2022-10-16T16:09:14;4.15;;;1.05;;
7487;SDS011;3785;52.260;4.728;2022-10-16T16:12:35;4.18;;;1.10;;
7487;SDS011;3785;52.260;4.728;2022-10-16T16:15:57;2.85;;;1.10;;
7487;SDS011;3785;52.260;4.728;2022-10-16T16:19:18;2.13;;;0.80;;
7487;SDS011;3785;52.260;4.728;2022-10-16T16:22:40;3.25;;;0.98;;
7487;SDS011;3785;52.260;4.728;2022-10-16T16:26:03;1.65;;;0.68;;
7487;SDS011;3785;52.260;4.728;2022-10-16T16:29:29;4.18;;;0.93;;
7487;SDS011;3785;52.260;4.728;2022-10-16T16:32:50;2.58;;;0.85;;
7487;SDS011;3785;52.260;4.728;2022-10-16T16:36:11;2.78;;;1.08;;
7487;SDS011;3785;52.260;4.728;2022-10-16T16:39:31;4.43;;;1.50;;
7487;SDS011;3785;52.260;4.728;2022-10-16T16:42:52;4.22;;;0.80;;
7487;SDS011;3785;52.260;4.728;2022-10-16T16:46:12;1.98;;;1.00;;
7487;SDS011;3785;52.260;4.728;2022-10-16T16:49:34;5.57;;;1.10;;
7487;SDS011;3785;52.260;4.728;2022-10-16T16:52:54;4.63;;;0.95;;
7487;SDS011;3785;52.260;4.728;2022-10-16T16:56:15;3.00;;;0.90;;
7487;SDS011;3785;52.260;4.728;2022-10-16T16:59:36;4.07;;;0.88;;
7487;SDS011;3785;52.260;4.728;2022-10-16T17:02:57;2.72;;;1.02;;
7487;SDS011;3785;52.260;4.728;2022-10-16T17:06:22;4.00;;;1.40;;
7487;SDS011;3785;52.260;4.728;2022-10-16T17:09:44;3.42;;;1.20;;
7487;SDS011;3785;52.260;4.728;2022-10-16T17:13:05;4.15;;;1.02;;
7487;SDS011;3785;52.260;4.728;2022-10-16T17:16:31;3.53;;;1.58;;
7487;SDS011;3785;52.260;4.728;2022-10-16T17:19:53;4.82;;;1.25;;
7487;SDS011;3785;52.260;4.728;2022-10-16T17:23:14;3.33;;;1.08;;
7487;SDS011;3785;52.260;4.728;2022-10-16T17:26:36;5.00;;;1.50;;
7487;SDS011;3785;52.260;4.728;2022-10-16T17:30:03;16.95;;;2.33;;
7487;SDS011;3785;52.260;4.728;2022-10-16T17:33:24;5.10;;;2.65;;
7487;SDS011;3785;52.260;4.728;2022-10-16T17:36:45;3.10;;;1.48;;
7487;SDS011;3785;52.260;4.728;2022-10-16T17:40:06;4.82;;;1.85;;
7487;SDS011;3785;52.260;4.728;2022-10-16T17:43:28;3.72;;;1.67;;
7487;SDS011;3785;52.260;4.728;2022-10-16T17:46:49;3.88;;;1.90;;
7487;SDS011;3785;52.260;4.728;2022-10-16T17:50:11;3.13;;;1.70;;
7487;SDS011;3785;52.260;4.728;2022-10-16T17:53:32;4.50;;;1.98;;
7487;SDS011;3785;52.260;4.728;2022-10-16T17:56:53;4.55;;;2.17;;
7487;SDS011;3785;52.260;4.728;2022-10-16T18:00:14;4.70;;;2.00;;
7487;SDS011;3785;52.260;4.728;2022-10-16T18:03:34;7.13;;;2.38;;
7487;SDS011;3785;52.260;4.728;2022-10-16T18:06:55;7.13;;;3.35;;
7487;SDS011;3785;52.260;4.728;2022-10-16T18:10:16;4.78;;;2.45;;
7487;SDS011;3785;52.260;4.728;2022-10-16T18:13:36;4.25;;;2.35;;
7487;SDS011;3785;52.260;4.728;2022-10-16T18:16:57;5.32;;;2.03;;
7487;SDS011;3785;52.260;4.728;2022-10-16T18:20:18;3.80;;;2.25;;
7487;SDS011;3785;52.260;4.728;2022-10-16T18:23:39;4.75;;;2.25;;
7487;SDS011;3785;52.260;4.728;2022-10-16T18:27:00;4.88;;;2.03;;
7487;SDS011;3785;52.260;4.728;2022-10-16T18:30:20;5.78;;;2.65;;
7487;SDS011;3785;52.260;4.728;2022-10-16T18:33:42;5.00;;;2.15;;
7487;SDS011;3785;52.260;4.728;2022-10-16T18:37:07;4.70;;;1.70;;
7487;SDS011;3785;52.260;4.728;2022-10-16T18:40:28;4.82;;;1.70;;
7487;SDS011;3785;52.260;4.728;2022-10-16T18:43:48;4.30;;;1.48;;
7487;SDS011;3785;52.260;4.728;2022-10-16T18:47:09;2.28;;;1.02;;
7487;SDS011;3785;52.260;4.728;2022-10-16T18:50:30;4.50;;;1.30;;
7487;SDS011;3785;52.260;4.728;2022-10-16T18:53:51;6.00;;;1.50;;
7487;SDS011;3785;52.260;4.728;2022-10-16T18:57:14;4.50;;;1.58;;
7487;SDS011;3785;52.260;4.728;2022-10-16T19:00:34;4.03;;;1.42;;
7487;SDS011;3785;52.260;4.728;2022-10-16T19:04:00;4.15;;;1.38;;
7487;SDS011;3785;52.260;4.728;2022-10-16T19:07:22;5.07;;;1.30;;
7487;SDS011;3785;52.260;4.728;2022-10-16T19:10:43;3.80;;;1.33;;
7487;SDS011;3785;52.260;4.728;2022-10-16T19:14:04;6.43;;;1.40;;
7487;SDS011;3785;52.260;4.728;2022-10-16T19:17:24;2.80;;;1.20;;
7487;SDS011;3785;52.260;4.728;2022-10-16T19:20:45;3.50;;;1.80;;
7487;SDS011;3785;52.260;4.728;2022-10-16T19:24:06;6.95;;;2.15;;
7487;SDS011;3785;52.260;4.728;2022-10-16T19:27:28;4.35;;;1.42;;
7487;SDS011;3785;52.260;4.728;2022-10-16T19:30:48;5.53;;;1.40;;
7487;SDS011;3785;52.260;4.728;2022-10-16T19:34:09;3.92;;;1.40;;
7487;SDS011;3785;52.260;4.728;2022-10-16T19:37:30;5.22;;;1.52;;
7487;SDS011;3785;52.260;4.728;2022-10-16T19:40:50;3.03;;;1.35;;
7487;SDS011;3785;52.260;4.728;2022-10-16T19:44:12;4.93;;;1.60;;
7487;SDS011;3785;52.260;4.728;2022-10-16T19:47:34;2.17;;;1.40;;
7487;SDS011;3785;52.260;4.728;2022-10-16T19:50:55;3.08;;;1.17;;
7487;SDS011;3785;52.260;4.728;2022-10-16T19:54:17;5.85;;;1.38;;
7487;SDS011;3785;52.260;4.728;2022-10-16T19:57:38;5.40;;;1.38;;
7487;SDS011;3785;52.260;4.728;2022-10-16T20:00:58;4.38;;;1.40;;
7487;SDS011;3785;52.260;4.728;2022-10-16T20:04:19;4.82;;;1.40;;
7487;SDS011;3785;52.260;4.728;2022-10-16T20:07:39;7.07;;;1.77;;
7487;SDS011;3785;52.260;4.728;2022-10-16T20:11:00;3.13;;;1.45;;
7487;SDS011;3785;52.260;4.728;2022-10-16T20:14:21;2.22;;;1.40;;
7487;SDS011;3785;52.260;4.728;2022-10-16T20:17:41;6.32;;;1.52;;
7487;SDS011;3785;52.260;4.728;2022-10-16T20:21:07;4.45;;;2.45;;
7487;SDS011;3785;52.260;4.728;2022-10-16T20:24:31;4.18;;;1.80;;
7487;SDS011;3785;52.260;4.728;2022-10-16T20:27:51;3.85;;;1.42;;
7487;SDS011;3785;52.260;4.728;2022-10-16T20:31:16;3.83;;;1.50;;
7487;SDS011;3785;52.260;4.728;2022-10-16T20:34:44;4.78;;;1.92;;
7487;SDS011;3785;52.260;4.728;2022-10-16T20:38:08;5.10;;;1.67;;
7487;SDS011;3785;52.260;4.728;2022-10-16T20:41:29;3.03;;;1.70;;
7487;SDS011;3785;52.260;4.728;2022-10-16T20:44:50;3.72;;;1.80;;
7487;SDS011;3785;52.260;4.728;2022-10-16T20:48:10;4.13;;;1.90;;
7487;SDS011;3785;52.260;4.728;2022-10-16T20:51:32;5.30;;;1.85;;
7487;SDS011;3785;52.260;4.728;2022-10-16T20:54:53;5.25;;;2.00;;
7487;SDS011;3785;52.260;4.728;2022-10-16T20:58:13;6.10;;;2.10;;
7487;SDS011;3785;52.260;4.728;2022-10-16T21:01:34;4.35;;;2.75;;
7487;SDS011;3785;52.260;4.728;2022-10-16T21:04:55;3.42;;;1.90;;
7487;SDS011;3785;52.260;4.728;2022-10-16T21:08:15;2.03;;;1.60;;
7487;SDS011;3785;52.260;4.728;2022-10-16T21:11:36;4.93;;;2.05;;
7487;SDS011;3785;52.260;4.728;2022-10-16T21:14:57;4.65;;;2.00;;
7487;SDS011;3785;52.260;4.728;2022-10-16T21:18:18;4.13;;;2.25;;
7487;SDS011;3785;52.260;4.728;2022-10-16T21:21:38;4.32;;;1.80;;
7487;SDS011;3785;52.260;4.728;2022-10-16T21:24:59;5.03;;;1.90;;
7487;SDS011;3785;52.260;4.728;2022-10-16T21:28:19;4.50;;;2.28;;
7487;SDS011;3785;52.260;4.728;2022-10-16T21:31:40;4.30;;;2.08;;
7487;SDS011;3785;52.260;4.728;2022-10-16T21:35:02;4.32;;;2.10;;
7487;SDS011;3785;52.260;4.728;2022-10-16T21:38:23;3.45;;;1.98;;
7487;SDS011;3785;52.260;4.728;2022-10-16T21:41:44;3.17;;;2.15;;
7487;SDS011;3785;52.260;4.728;2022-10-16T21:45:07;4.65;;;1.85;;
7487;SDS011;3785;52.260;4.728;2022-10-16T21:48:28;3.33;;;2.00;;
7487;SDS011;3785;52.260;4.728;2022-10-16T21:51:49;2.83;;;1.92;;
7487;SDS011;3785;52.260;4.728;2022-10-16T21:55:10;3.55;;;1.75;;
7487;SDS011;3785;52.260;4.728;2022-10-16T21:58:31;3.08;;;1.88;;
7487;SDS011;3785;52.260;4.728;2022-10-16T22:01:52;4.88;;;2.15;;
7487;SDS011;3785;52.260;4.728;2022-10-16T22:05:13;2.67;;;1.80;;
7487;SDS011;3785;52.260;4.728;2022-10-16T22:08:34;6.35;;;1.70;;
7487;SDS011;3785;52.260;4.728;2022-10-16T22:11:56;3.63;;;2.00;;
7487;SDS011;3785;52.260;4.728;2022-10-16T22:15:17;4.35;;;2.15;;
7487;SDS011;3785;52.260;4.728;2022-10-16T22:18:38;5.15;;;1.95;;
7487;SDS011;3785;52.260;4.728;2022-10-16T22:21:59;3.67;;;2.10;;
7487;SDS011;3785;52.260;4.728;2022-10-16T22:25:20;3.50;;;2.45;;
7487;SDS011;3785;52.260;4.728;2022-10-16T22:28:41;4.05;;;2.17;;
7487;SDS011;3785;52.260;4.728;2022-10-16T22:32:01;4.10;;;2.28;;
7487;SDS011;3785;52.260;4.728;2022-10-16T22:35:22;3.80;;;2.25;;
7487;SDS011;3785;52.260;4.728;2022-10-16T22:38:42;3.85;;;1.90;;
7487;SDS011;3785;52.260;4.728;2022-10-16T22:42:03;4.43;;;2.00;;
7487;SDS011;3785;52.260;4.728;2022-10-16T22:45:23;3.53;;;2.10;;
7487;SDS011;3785;52.260;4.728;2022-10-16T22:48:44;3.22;;;1.98;;
7487;SDS011;3785;52.260;4.728;2022-10-16T22:52:05;3.67;;;2.00;;
7487;SDS011;3785;52.260;4.728;2022-10-16T22:55:25;3.80;;;1.88;;
7487;SDS011;3785;52.260;4.728;2022-10-16T22:58:46;2.83;;;1.83;;
7487;SDS011;3785;52.260;4.728;2022-10-16T23:02:07;6.15;;;2.53;;
7487;SDS011;3785;52.260;4.728;2022-10-16T23:05:27;5.30;;;3.08;;